M I D A S
Marine Information and Data Acquisition System
Tripno 653 of the Zeeleeuw from 2004-02-23 08:00:59 to 2004-02-23 13:38:13
Back to CruiseResearch ActivitiesStationsMapUnderway DataData graphs

EquipmentUnitsComment
TimeDGPSUTC
LatitudeDGPSDM.mWGS84
LongitudeDGPSDM.mWGS84
HeadingGyrodeg 
SOGDGPSknotsSpeed over ground
COGDGPSdegCourse over ground
DepthEcho soundermeters200 kHz
Missing or incorrect values are displayed as -999
Navigation data collected by the RV Zeeleeuw from 2004-02-23 08:00:59 to 2004-02-23 13:38:13
                                                                                    Next 1000 lines
Time Latitude Longitude Heading SOG COG Depth
2004-02-23 08:01:09 51°13.594 2°56.108 125.6 0.1 97 5.7
2004-02-23 08:01:14 51°13.594 2°56.107 124.5 0.1 176 5.8
2004-02-23 08:01:19 51°13.594 2°56.107 123.3   140 5.7
2004-02-23 08:01:23 51°13.594 2°56.107 121.9   216 5.7
2004-02-23 08:01:29 51°13.594 2°56.106 121.2 0.1 173 5.7
2004-02-23 08:01:34 51°13.594 2°56.106 120 0.1 182 5.7
2004-02-23 08:01:39 51°13.593 2°56.106 119   189 5.9
2004-02-23 08:01:43 51°13.593 2°56.106 118.1   182 5.8
2004-02-23 08:01:49 51°13.593 2°56.105 117.3   145 5.8
2004-02-23 08:01:54 51°13.593 2°56.106 116.4   152 5.8
2004-02-23 08:01:59 51°13.593 2°56.106 115.6   165 5.8
2004-02-23 08:02:04 51°13.593 2°56.106 114.8   202 5.8
2004-02-23 08:02:09 51°13.593 2°56.106 114   173 5.8
2004-02-23 08:02:14 51°13.592 2°56.106 113.2   176 5.8
2004-02-23 08:02:19 51°13.592 2°56.106 112.5   195 5.8
2004-02-23 08:02:24 51°13.592 2°56.106 111.7 0.1 189 5.8
2004-02-23 08:02:29 51°13.592 2°56.106 111.3 0.1 264 5.8
2004-02-23 08:02:33 51°13.592 2°56.106 111.1 0.4 286 5.9
2004-02-23 08:02:39 51°13.593 2°56.104 111.1 0.7 294 5.9
2004-02-23 08:02:43 51°13.593 2°56.103 111.2 0.9 287 5.9
2004-02-23 08:02:49 51°13.594 2°56.099 111.3 1.5 290 5.8
2004-02-23 08:02:54 51°13.595 2°56.096 111.9 1.7 294 5.8
2004-02-23 08:02:59 51°13.596 2°56.091 112.7 1.9 292 -999
2004-02-23 08:03:05 51°13.597 2°56.086 113.4 2.1 290 -999
2004-02-23 08:03:10 51°13.598 2°56.081 114.2 2.5 291 -999
2004-02-23 08:03:15 51°13.599 2°56.075 114.8 2.6 291 -999
2004-02-23 08:03:19 51°13.6 2°56.07 115.4 2.8 292 -999
2004-02-23 08:03:25 51°13.602 2°56.063 116 2.9 292 -999
2004-02-23 08:03:29 51°13.603 2°56.058 116.5 3.2 292 -999
2004-02-23 08:03:35 51°13.605 2°56.049 116.8 3.3 291 -999
2004-02-23 08:03:39 51°13.607 2°56.043 117.5 3.5 293 -999
2004-02-23 08:03:45 51°13.609 2°56.035 118.5 3.6 294 -999
2004-02-23 08:03:50 51°13.611 2°56.027 119.7 3.9 294 -999
2004-02-23 08:03:55 51°13.614 2°56.019 120.4 4 296 -999
2004-02-23 08:03:59 51°13.616 2°56.012 121.3 4.2 296 -999
2004-02-23 08:04:05 51°13.619 2°56.001 122.2 4.4 297 -999
2004-02-23 08:04:09 51°13.622 2°55.995 123.3 4.6 298 -999
2004-02-23 08:04:15 51°13.625 2°55.984 124.1 4.7 299 -999
2004-02-23 08:04:19 51°13.628 2°55.976 124.5 4.8 300 -999
2004-02-23 08:04:25 51°13.632 2°55.965 125 4.8 300 -999
2004-02-23 08:04:30 51°13.636 2°55.956 125.5 4.9 301 -999
2004-02-23 08:04:35 51°13.639 2°55.947 125.8 4.9 301 -999
2004-02-23 08:04:39 51°13.642 2°55.939 126 5 301 -999
2004-02-23 08:04:45 51°13.647 2°55.928 126.2 5 302 -999
2004-02-23 08:04:50 51°13.65 2°55.918 126.2 5.1 302 -999
2004-02-23 08:04:55 51°13.654 2°55.909 126.2 5.1 302 -999
2004-02-23 08:04:59 51°13.657 2°55.901 126 5.2 302 -999
2004-02-23 08:05:05 51°13.662 2°55.889 125.7 5.2 302 -999
2004-02-23 08:05:09 51°13.665 2°55.882 125.4 5.2 301 -999
2004-02-23 08:05:15 51°13.669 2°55.87 124.8 5.2 301 -999
2004-02-23 08:05:19 51°13.672 2°55.862 124.2 5.2 301 -999
2004-02-23 08:05:25 51°13.677 2°55.85 123.8 5.2 300 -999
2004-02-23 08:05:30 51°13.68 2°55.841 123.2 5.2 301 -999
2004-02-23 08:05:35 51°13.684 2°55.83 122.6 5.3 300 -999
2004-02-23 08:05:40 51°13.687 2°55.82 121.7 5.3 300 -999
2004-02-23 08:05:45 51°13.691 2°55.809 120.7 5.3 298 -999
2004-02-23 08:05:50 51°13.694 2°55.799 118.9 5.4 295 -999
2004-02-23 08:05:55 51°13.697 2°55.788 116.1 5.4 293 -999
2004-02-23 08:05:59 51°13.699 2°55.779 113.9 5.4 291 -999
2004-02-23 08:06:05 51°13.701 2°55.765 111.7 5.4 289 -999
2004-02-23 08:06:10 51°13.703 2°55.755 109.7 5 285 -999
2004-02-23 08:06:15 51°13.705 2°55.745 108.6 4.6 284 -999
2004-02-23 08:06:19 51°13.705 2°55.739 107.4 3.8 282 -999
2004-02-23 08:06:25 51°13.706 2°55.733 105.8 2.3 280 -999
2004-02-23 08:06:29 51°13.706 2°55.732 102.3 0.8 286 11.6
2004-02-23 08:06:34 51°13.706 2°55.732 98.6 0.3 58 12
2004-02-23 08:06:39 51°13.707 2°55.735 92.1 1.1 74 11.7
2004-02-23 08:06:43 51°13.707 2°55.739 83.5 2.1 74 11.4
2004-02-23 08:06:49 51°13.709 2°55.744 73.9 2.2 63 11.7
2004-02-23 08:06:54 51°13.71 2°55.748 68.7 1.9 65 11.6
2004-02-23 08:06:59 51°13.711 2°55.75 64.9 1.4 63 11.8
2004-02-23 08:07:03 51°13.711 2°55.752 61.9 0.9 70 12.2
2004-02-23 08:07:09 51°13.711 2°55.752 58.7 0.3 208 11.7
2004-02-23 08:07:14 51°13.71 2°55.751 56.3 0.7 220 11.6
2004-02-23 08:07:19 51°13.709 2°55.748 55 1.2 229 11.7
2004-02-23 08:07:23 51°13.707 2°55.746 54.4 1.7 227 11.8
2004-02-23 08:07:29 51°13.705 2°55.742 54.1 1.9 230 5.1
2004-02-23 08:07:35 51°13.703 2°55.739 53.9 1.7 230 -999
2004-02-23 08:07:39 51°13.703 2°55.737 54.2 1.2 236 -999
2004-02-23 08:07:45 51°13.703 2°55.738 53.1 0.2 231 -999
2004-02-23 08:07:50 51°13.704 2°55.739 48 1.2 26 -999
2004-02-23 08:07:55 51°13.707 2°55.741 41.1 1.7 34 -999
2004-02-23 08:07:59 51°13.709 2°55.742 32.9 2.1 21 -999
2004-02-23 08:08:05 51°13.713 2°55.745 24.9 2.6 18 -999
2004-02-23 08:08:09 51°13.716 2°55.744 15 3 1 -999
2004-02-23 08:08:14 51°13.721 2°55.744 9 3.5 359 5.2
2004-02-23 08:08:19 51°13.727 2°55.742 359.7 3.9 347 9.7
2004-02-23 08:08:23 51°13.732 2°55.739 351.2 4.7 338 8.8
2004-02-23 08:08:29 51°13.739 2°55.732 340.3 4.9 334 8.3
2004-02-23 08:08:34 51°13.745 2°55.726 332.3 4.7 326 8.3
2004-02-23 08:08:39 51°13.749 2°55.72 329.1 4.5 323 8.2
2004-02-23 08:08:43 51°13.754 2°55.716 327 4.5 323 8.1
2004-02-23 08:08:49 51°13.76 2°55.707 325.8 4.9 321 8
2004-02-23 08:08:54 51°13.765 2°55.7 325.5 4.3 322 8.3
2004-02-23 08:08:59 51°13.771 2°55.693 326.2 4.1 322 8.3
2004-02-23 08:09:04 51°13.778 2°55.685 327.3 5.9 324 8.4
2004-02-23 08:09:09 51°13.785 2°55.677 328.1 6.4 323 8.4
2004-02-23 08:09:13 51°13.791 2°55.67 328.4 6.6 324 8.5
2004-02-23 08:09:19 51°13.8 2°55.659 328.6 6.9 324 8.7
2004-02-23 08:09:24 51°13.808 2°55.65 329.1 7 326 8.8
2004-02-23 08:09:29 51°13.816 2°55.642 330.3 7 326 8.8
2004-02-23 08:09:34 51°13.825 2°55.634 331.8 7.1 329 8.8
2004-02-23 08:09:39 51°13.833 2°55.626 333.7 7.2 330 8.8
2004-02-23 08:09:44 51°13.842 2°55.618 335.7 7.3 332 8.7
2004-02-23 08:09:49 51°13.852 2°55.61 337 7.5 332 8.5
2004-02-23 08:09:53 51°13.859 2°55.604 337.9 7.6 334 8.4
2004-02-23 08:09:59 51°13.871 2°55.595 338.8 7.7 334 8.5
2004-02-23 08:10:04 51°13.88 2°55.588 339.6 7.7 334 8.3
2004-02-23 08:10:09 51°13.89 2°55.581 340.1 7.9 334 8.3
2004-02-23 08:10:14 51°13.9 2°55.574 340.3 7.9 336 8.4
2004-02-23 08:10:19 51°13.91 2°55.567 341.4 8 336 8.4
2004-02-23 08:10:23 51°13.919 2°55.561 341.7 8 336 8.4
2004-02-23 08:10:29 51°13.931 2°55.552 341.2 8.1 336 8.4
2004-02-23 08:10:34 51°13.941 2°55.545 341.3 8.1 337 8.7
2004-02-23 08:10:39 51°13.951 2°55.538 342.1 8.1 337 8.6
2004-02-23 08:10:44 51°13.962 2°55.531 342.1 8.2 336 8.7
2004-02-23 08:10:49 51°13.972 2°55.523 341.9 8.2 336 8.7
2004-02-23 08:10:54 51°13.983 2°55.516 341.9 8.2 337 8.7
2004-02-23 08:10:59 51°13.993 2°55.509 341.9 8.3 336 8.7
2004-02-23 08:11:03 51°14.002 2°55.503 342 8.3 336 8.9
2004-02-23 08:11:09 51°14.015 2°55.495 342.8 8.3 338 8.9
2004-02-23 08:11:13 51°14.023 2°55.489 343.1 8.3 337 8.6
2004-02-23 08:11:19 51°14.036 2°55.48 342.3 8.3 336 8.6
2004-02-23 08:11:24 51°14.046 2°55.472 341.8 8.3 336 8.5
2004-02-23 08:11:29 51°14.057 2°55.465 341.8 8.4 336 8.4
2004-02-23 08:11:34 51°14.067 2°55.457 341.8 8.4 335 8.3
2004-02-23 08:11:39 51°14.078 2°55.449 340.5 8.4 334 8
2004-02-23 08:11:44 51°14.088 2°55.441 339.9 8.4 335 8.6
2004-02-23 08:11:49 51°14.099 2°55.432 339.4 8.8 333 8.9
2004-02-23 08:11:53 51°14.108 2°55.426 339.6 9.1 335 8.8
2004-02-23 08:11:59 51°14.122 2°55.415 340.4 9.3 334 9.5
2004-02-23 08:12:03 51°14.132 2°55.407 340.2 9.5 333 8.3
2004-02-23 08:12:09 51°14.146 2°55.395 339 9.8 332 9.4
2004-02-23 08:12:14 51°14.158 2°55.385 338.1 9.8 332 9.3
2004-02-23 08:12:19 51°14.17 2°55.374 337.3 9.9 331 9.6
2004-02-23 08:12:23 51°14.18 2°55.366 336.1 10 330 9.9
2004-02-23 08:12:30 51°14.196 2°55.349 334.8 10.2 327 -999
2004-02-23 08:12:35 51°14.208 2°55.336 333.4 10.3 326 9.6
2004-02-23 08:12:39 51°14.218 2°55.325 331.2 10.6 324 -999
2004-02-23 08:12:45 51°14.232 2°55.308 329.3 10.7 322 9.7
2004-02-23 08:12:49 51°14.241 2°55.295 327.4 10.9 320 -999
2004-02-23 08:12:54 51°14.252 2°55.279 326.1 11 319 -999
2004-02-23 08:12:59 51°14.264 2°55.263 324.4 11.2 318 10
2004-02-23 08:13:04 51°14.275 2°55.245 321.9 11.3 314 9
2004-02-23 08:13:09 51°14.285 2°55.226 319.3 11.5 311 9.4
2004-02-23 08:13:14 51°14.295 2°55.206 316 11.6 309 -999
2004-02-23 08:13:19 51°14.305 2°55.185 313.8 11.8 307 -999
2004-02-23 08:13:25 51°14.316 2°55.16 311.9 11.7 307 -999
2004-02-23 08:13:30 51°14.326 2°55.138 310.9 11.9 305 -999
2004-02-23 08:13:34 51°14.333 2°55.12 309.9 11.9 304 9.4
2004-02-23 08:13:39 51°14.342 2°55.098 309.5 11.7 304 9.4
2004-02-23 08:13:44 51°14.351 2°55.077 309.7 11.9 303 8.9
2004-02-23 08:13:49 51°14.361 2°55.056 310.6 11.7 305 8.7
2004-02-23 08:13:54 51°14.37 2°55.034 310.5 11.8 303 8.7
2004-02-23 08:13:59 51°14.378 2°55.011 309.7 11.8 302 9
2004-02-23 08:14:05 51°14.386 2°54.983 308.4 11.6 299 -999
2004-02-23 08:14:09 51°14.39 2°54.964 303.8 11.9 288 8.7
2004-02-23 08:14:14 51°14.394 2°54.939 299 11.9 285 8.7
2004-02-23 08:14:19 51°14.397 2°54.913 294.8 11.7 282 8.7
2004-02-23 08:14:23 51°14.4 2°54.894 291.7 11.2 282 8.7
2004-02-23 08:14:29 51°14.402 2°54.865 289.1 11 278 8.7
2004-02-23 08:14:34 51°14.404 2°54.841 287.4 10.7 276 9.3
2004-02-23 08:14:39 51°14.405 2°54.818 285.3 10.5 275 9
2004-02-23 08:14:44 51°14.406 2°54.796 284.6 10 272 9.1
2004-02-23 08:14:49 51°14.405 2°54.774 281.9 9.7 271 9.6
2004-02-23 08:14:53 51°14.405 2°54.757 278.6 9.6 264 9.1
2004-02-23 08:14:59 51°14.404 2°54.732 275.3 9.5 267 9.1
2004-02-23 08:15:03 51°14.402 2°54.716 273 9.4 263 9.1
2004-02-23 08:15:09 51°14.4 2°54.691 271.8 9.4 262 9.1
2004-02-23 08:15:13 51°14.399 2°54.675 269.7 9.4 259 8.8
2004-02-23 08:15:19 51°14.396 2°54.65 268.6 9.3 260 8.8
2004-02-23 08:15:25 51°14.392 2°54.627 267.2 9.3 259 8.9
2004-02-23 08:15:29 51°14.39 2°54.611 266.6 9.1 259 9
2004-02-23 08:15:34 51°14.386 2°54.592 264.7 9.1 253 8.9
2004-02-23 08:15:39 51°14.383 2°54.572 263.7 9 256 8.8
2004-02-23 08:15:43 51°14.38 2°54.557 262.4 9.1 252 8.6
2004-02-23 08:15:49 51°14.376 2°54.534 262.1 8.9 255 8.5
2004-02-23 08:15:53 51°14.373 2°54.519 261.3 9 253 8.5
2004-02-23 08:15:59 51°14.368 2°54.496 260 9 253 8.5
2004-02-23 08:16:03 51°14.365 2°54.481 259.8 9 247 8.1
2004-02-23 08:16:09 51°14.36 2°54.457 257.1 9.3 245 8
2004-02-23 08:16:14 51°14.354 2°54.437 255.6 10.1 248 8
2004-02-23 08:16:19 51°14.349 2°54.415 255.6 10.5 248 7.9
2004-02-23 08:16:24 51°14.344 2°54.392 255.6 11 250 7.9
2004-02-23 08:16:29 51°14.337 2°54.368 255.7 11.9 248 8
2004-02-23 08:16:33 51°14.333 2°54.347 254.2 12.3 249 8
2004-02-23 08:16:39 51°14.324 2°54.317 254.8 12.5 247 7.9
2004-02-23 08:16:43 51°14.318 2°54.296 253.1 13.1 246 7.9
2004-02-23 08:16:49 51°14.308 2°54.264 251.1 13.4 243 7.9
2004-02-23 08:16:54 51°14.299 2°54.238 248.2 13.5 241 7.9
2004-02-23 08:16:59 51°14.29 2°54.212 246 13.6 240 7.9
2004-02-23 08:17:04 51°14.281 2°54.185 244.5 13.7 240 7.9
2004-02-23 08:17:09 51°14.269 2°54.161 244.4 14 236 7.8
2004-02-23 08:17:14 51°14.261 2°54.132 242.2 14 242 7.7
2004-02-23 08:17:19 51°14.249 2°54.107 243.3 14.1 234 7.7
2004-02-23 08:17:24 51°14.24 2°54.081 244.1 13.9 236 7.4
2004-02-23 08:17:29 51°14.229 2°54.053 242.4 14.5 243 7.3
2004-02-23 08:17:33 51°14.222 2°54.031 244 14.1 240 7.4
2004-02-23 08:17:39 51°14.21 2°53.999 245 14.2 238 7.4
2004-02-23 08:17:44 51°14.202 2°53.971 246 14 244 7.5
2004-02-23 08:17:49 51°14.191 2°53.944 248.3 14.3 240 7.4
2004-02-23 08:17:54 51°14.184 2°53.915 247.2 14.3 245 7.4
2004-02-23 08:17:59 51°14.174 2°53.887 247.9 14.3 241 7.4
2004-02-23 08:18:03 51°14.166 2°53.864 247.5 14.6 240 7.4
2004-02-23 08:18:09 51°14.156 2°53.83 247.7 14.1 243 7.5
2004-02-23 08:18:14 51°14.147 2°53.803 248.7 14.1 243 5.7
2004-02-23 08:18:19 51°14.136 2°53.775 247.6 14.4 240 7.4
2004-02-23 08:18:23 51°14.13 2°53.751 247 14.6 243 7.5
2004-02-23 08:18:29 51°14.117 2°53.719 246.9 14.6 240 7.4
2004-02-23 08:18:34 51°14.108 2°53.69 244.9 14.5 242 7.4
2004-02-23 08:18:39 51°14.097 2°53.663 245.6 14.4 239 7.6
2004-02-23 08:18:43 51°14.09 2°53.641 245.5 14.4 239 7.6
2004-02-23 08:18:49 51°14.076 2°53.608 243.2 14.8 240 7.6
2004-02-23 08:18:53 51°14.067 2°53.586 243.5 15 235 7.4
2004-02-23 08:18:59 51°14.056 2°53.552 242.4 14.6 242 7.4
2004-02-23 08:19:03 51°14.045 2°53.532 244.7 14.6 235 7.5
2004-02-23 08:19:09 51°14.035 2°53.497 242.3 14.4 241 7.6
2004-02-23 08:19:14 51°14.024 2°53.471 245.7 14.3 238 7.7
2004-02-23 08:19:19 51°14.011 2°53.443 241.5 15.2 234 7.9
2004-02-23 08:19:24 51°14.005 2°53.412 245.2 14.9 250 7.8
2004-02-23 08:19:29 51°13.995 2°53.385 249.9 14.3 242 7.7
2004-02-23 08:19:33 51°13.989 2°53.361 248 14.7 245 5.7
2004-02-23 08:19:39 51°13.979 2°53.325 251.1 14.8 243 7.7
2004-02-23 08:19:43 51°13.971 2°53.301 249.9 15.1 245 7.8
2004-02-23 08:19:49 51°13.962 2°53.265 251.8 14.6 247 7.9
2004-02-23 08:19:54 51°13.951 2°53.237 251.4 15.1 239 7.8
2004-02-23 08:19:59 51°13.946 2°53.205 250.5 15.1 239 7.9
2004-02-23 08:20:04 51°13.933 2°53.178 251.8 15.3 236 7.7
2004-02-23 08:20:09 51°13.927 2°53.146 247.9 14.9 251 7.7
2004-02-23 08:20:13 51°13.918 2°53.124 253.6 14.7 237 7.8
2004-02-23 08:20:19 51°13.909 2°53.088 248 14.9 249 7.8
2004-02-23 08:20:24 51°13.897 2°53.059 249.8 14.9 249 8
2004-02-23 08:20:29 51°13.888 2°53.03 247.5 14.8 241 8.4
2004-02-23 08:20:34 51°13.878 2°53 247.7 15.1 241 8.4
2004-02-23 08:20:39 51°13.866 2°52.97 244.9 15.1 241 8.3
2004-02-23 08:20:43 51°13.86 2°52.946 247.9 14.7 243 8.6
2004-02-23 08:20:49 51°13.846 2°52.914 248.8 15 240 8.4
2004-02-23 08:20:53 51°13.839 2°52.889 243.4 15.1 244 8.4
2004-02-23 08:20:59 51°13.826 2°52.855 248.2 15.2 238 8.4
2004-02-23 08:21:03 51°13.819 2°52.83 245.4 15.4 241 8.3
2004-02-23 08:21:09 51°13.806 2°52.795 246.8 15.2 245 8.5
2004-02-23 08:21:13 51°13.798 2°52.772 248.8 15 238 8.6
2004-02-23 08:21:19 51°13.786 2°52.737 245.4 15.1 241 8.6
2004-02-23 08:21:23 51°13.777 2°52.714 247.5 15.2 244 8.4
2004-02-23 08:21:29 51°13.765 2°52.677 244.3 15.6 245 8.4
2004-02-23 08:21:34 51°13.753 2°52.649 246.5 15.4 237 8.4
2004-02-23 08:21:39 51°13.744 2°52.619 247.1 14.9 244 8.6
2004-02-23 08:21:43 51°13.735 2°52.598 246.6 15 239 8.6
2004-02-23 08:21:49 51°13.723 2°52.561 245.3 15.6 242 8.5
2004-02-23 08:21:54 51°13.713 2°52.53 245.6 15.7 242 8.4
2004-02-23 08:21:59 51°13.704 2°52.501 248.6 15.3 245 8.5
2004-02-23 08:22:03 51°13.696 2°52.48 248.6 14.2 239 8.5
2004-02-23 08:22:09 51°13.682 2°52.445 245.7 16 238 8.3
2004-02-23 08:22:14 51°13.674 2°52.412 244.4 15.9 248 8.4
2004-02-23 08:22:19 51°13.664 2°52.382 252 15.3 244 8.5
2004-02-23 08:22:24 51°13.656 2°52.352 250.4 15.1 244 8.6
2004-02-23 08:22:29 51°13.646 2°52.323 251.4 14.7 243 8.8
2004-02-23 08:22:33 51°13.639 2°52.299 249.5 15 243 8.8
2004-02-23 08:22:39 51°13.626 2°52.263 246.7 15 243 8.6
2004-02-23 08:22:44 51°13.617 2°52.232 248.1 15.6 244 8.7
2004-02-23 08:22:49 51°13.604 2°52.204 248.7 15.2 237 8.5
2004-02-23 08:22:54 51°13.596 2°52.174 245.2 14.9 244 8.6
2004-02-23 08:22:59 51°13.584 2°52.146 246.1 15 238 8.6
2004-02-23 08:23:04 51°13.574 2°52.116 244.2 15.5 243 8.5
2004-02-23 08:23:09 51°13.564 2°52.086 245.8 15.6 239 8.5
2004-02-23 08:23:14 51°13.553 2°52.058 245.8 14.7 242 8.8
2004-02-23 08:23:19 51°13.541 2°52.03 244.7 14.9 236 8.8
2004-02-23 08:23:23 51°13.534 2°52.005 242.1 15.6 242 8.7
2004-02-23 08:23:29 51°13.521 2°51.969 248.3 15.5 241 8.8
2004-02-23 08:23:34 51°13.513 2°51.938 247.6 15.3 244 8.9
2004-02-23 08:23:39 51°13.502 2°51.909 248.3 15.3 242 8.9
2004-02-23 08:23:43 51°13.495 2°51.885 249 14.5 244 9.1
2004-02-23 08:23:49 51°13.482 2°51.852 248.2 14.9 237 8.9
2004-02-23 08:23:54 51°13.473 2°51.82 244.3 15.8 245 8.9
2004-02-23 08:23:59 51°13.462 2°51.791 248.9 15.6 242 9
2004-02-23 08:24:03 51°13.454 2°51.768 246.4 15.1 241 9
2004-02-23 08:24:09 51°13.442 2°51.733 246.5 15.3 240 8.9
2004-02-23 08:24:14 51°13.432 2°51.702 246.5 15.4 243 9
2004-02-23 08:24:19 51°13.421 2°51.673 247.4 15.4 240 8.9
2004-02-23 08:24:24 51°13.413 2°51.643 248.7 15.2 246 8.9
2004-02-23 08:24:29 51°13.402 2°51.614 246.2 15 240 8.8
2004-02-23 08:24:33 51°13.394 2°51.59 246.7 15.4 240 8.8
2004-02-23 08:24:39 51°13.382 2°51.554 246.7 15.3 242 8.9
2004-02-23 08:24:43 51°13.373 2°51.531 245.9 15.3 241 8.8
2004-02-23 08:24:49 51°13.361 2°51.495 246.5 15.4 242 8.9
2004-02-23 08:24:53 51°13.352 2°51.473 246.5 14.8 239 9
2004-02-23 08:24:59 51°13.34 2°51.439 244.9 14.6 239 9.1
2004-02-23 08:25:03 51°13.33 2°51.417 242.7 15.5 236 8.9
2004-02-23 08:25:09 51°13.316 2°51.38 240.9 15.9 238 8.6
2004-02-23 08:25:14 51°13.305 2°51.35 244.5 15.6 240 8.8
2004-02-23 08:25:19 51°13.295 2°51.321 245.5 15.4 239 8.9
2004-02-23 08:25:24 51°13.285 2°51.291 244.2 15.4 239 8.9
2004-02-23 08:25:29 51°13.274 2°51.263 248.4 15.2 237 8.8
2004-02-23 08:25:33 51°13.266 2°51.238 245.5 15.6 245 8.7
2004-02-23 08:25:39 51°13.254 2°51.202 248.1 15.5 241 8.9
2004-02-23 08:25:44 51°13.245 2°51.173 249 14.9 241 9.1
2004-02-23 08:25:49 51°13.233 2°51.144 244.2 15.8 241 8.9
2004-02-23 08:25:53 51°13.225 2°51.119 245.3 15.7 242 9
2004-02-23 08:25:59 51°13.213 2°51.084 247.5 14.9 241 9.1
2004-02-23 08:26:03 51°13.205 2°51.062 246.6 14.8 242 9.1
2004-02-23 08:26:09 51°13.193 2°51.025 244.9 15.4 245 8.9
2004-02-23 08:26:13 51°13.184 2°51.002 248.6 15 238 9
2004-02-23 08:26:19 51°13.172 2°50.967 245.5 15.2 241 8.9
2004-02-23 08:26:24 51°13.162 2°50.936 246.4 15.5 242 9
2004-02-23 08:26:29 51°13.152 2°50.907 248.7 15.1 240 9.3
2004-02-23 08:26:33 51°13.143 2°50.883 247 15.2 242 9.4
2004-02-23 08:26:39 51°13.131 2°50.847 247.9 15.5 241 9.3
2004-02-23 08:26:44 51°13.123 2°50.817 248.1 15.1 245 9.4
2004-02-23 08:26:49 51°13.111 2°50.789 247.6 15.1 241 9.3
2004-02-23 08:26:53 51°13.103 2°50.764 246 15.6 243 9.2
2004-02-23 08:26:59 51°13.091 2°50.728 248.2 15.3 242 9.2
2004-02-23 08:27:04 51°13.081 2°50.699 247.5 15.3 241 9.2
2004-02-23 08:27:09 51°13.072 2°50.669 247.6 15.2 244 9.1
2004-02-23 08:27:14 51°13.061 2°50.64 247.9 15 240 9.2
2004-02-23 08:27:19 51°13.051 2°50.61 247.1 15.3 242 9.1
2004-02-23 08:27:23 51°13.043 2°50.586 245.8 15.5 240 9.2
2004-02-23 08:27:29 51°13.03 2°50.551 246.9 15.4 237 9.3
2004-02-23 08:27:34 51°13.02 2°50.521 246 15.3 243 9.3
2004-02-23 08:27:39 51°13.01 2°50.493 246.7 15 240 9.4
2004-02-23 08:27:43 51°13.002 2°50.469 245.1 14.8 241 9.3
2004-02-23 08:27:49 51°12.988 2°50.435 243.8 15.7 243 9.2
2004-02-23 08:27:54 51°12.978 2°50.404 244.3 15.7 240 9.3
2004-02-23 08:27:59 51°12.969 2°50.374 246.8 15.2 243 9.3
2004-02-23 08:28:03 51°12.96 2°50.352 247 15 241 9.4
2004-02-23 08:28:09 51°12.948 2°50.316 244.9 15.4 244 9.3
2004-02-23 08:28:13 51°12.94 2°50.292 247.5 15.2 240 9.3
2004-02-23 08:28:19 51°12.928 2°50.257 245.8 15.2 242 9.4
2004-02-23 08:28:23 51°12.917 2°50.235 245.9 15.4 236 9.3
2004-02-23 08:28:29 51°12.905 2°50.197 244.5 16 239 9
2004-02-23 08:28:33 51°12.897 2°50.173 245.2 15.7 243 9.1
2004-02-23 08:28:39 51°12.885 2°50.138 246.2 15 241 9.4
2004-02-23 08:28:44 51°12.874 2°50.11 247 14.8 239 9.5
2004-02-23 08:28:49 51°12.864 2°50.08 244 15.6 240 9.5
2004-02-23 08:28:53 51°12.856 2°50.055 245.1 15.7 244 9.5
2004-02-23 08:28:59 51°12.843 2°50.019 246.8 15.7 241 9.5
2004-02-23 08:29:04 51°12.833 2°49.988 247.7 15.5 244 9.4
2004-02-23 08:29:09 51°12.824 2°49.957 248.8 15.1 243 9.6
2004-02-23 08:29:14 51°12.814 2°49.929 248.5 15.3 241 9.3
2004-02-23 08:29:19 51°12.804 2°49.899 245.8 15.4 241 9.4
2004-02-23 08:29:23 51°12.796 2°49.875 247.5 15 239 9.4
2004-02-23 08:29:29 51°12.783 2°49.841 244.7 14.9 239 9.5
2004-02-23 08:29:34 51°12.771 2°49.812 242.8 15.8 238 9.4
2004-02-23 08:29:39 51°12.761 2°49.781 243.1 15.8 243 9.5
2004-02-23 08:29:45 51°12.748 2°49.746 246.1 15.8 243 9.8
2004-02-23 08:29:49 51°12.74 2°49.722 244.1 15.5 240 9.7
2004-02-23 08:29:53 51°12.731 2°49.698 245.3 15.6 241 9.7
2004-02-23 08:29:59 51°12.72 2°49.662 246.2 15.1 242 9.8
2004-02-23 08:30:04 51°12.708 2°49.634 246.4 15.2 237 9.6
2004-02-23 08:30:09 51°12.699 2°49.603 243.3 15.8 243 9.3
2004-02-23 08:30:14 51°12.689 2°49.572 246.9 15.7 243 9.5
2004-02-23 08:30:19 51°12.68 2°49.542 249 15.1 244 9.7
2004-02-23 08:30:23 51°12.67 2°49.52 246.1 15.1 238 9.6
2004-02-23 08:30:29 51°12.659 2°49.483 247.4 15.5 240 9.5
2004-02-23 08:30:34 51°12.648 2°49.453 247.2 15.4 241 9.6
2004-02-23 08:30:39 51°12.638 2°49.423 245.6 15.4 241 9.7
2004-02-23 08:30:43 51°12.629 2°49.399 245.4 15.7 240 9.8
2004-02-23 08:30:49 51°12.617 2°49.363 246.6 15.3 239 9.8
2004-02-23 08:30:54 51°12.606 2°49.333 245.8 15.3 241 9.6
2004-02-23 08:30:59 51°12.596 2°49.303 244.4 15.4 242 9.5
2004-02-23 08:31:03 51°12.587 2°49.28 245.2 15.5 242 9.4
2004-02-23 08:31:09 51°12.574 2°49.244 246.5 15.4 236 9.5
2004-02-23 08:31:13 51°12.566 2°49.22 244 15.6 244 9.7
2004-02-23 08:31:19 51°12.554 2°49.184 247.3 15.3 243 9.7
2004-02-23 08:31:23 51°12.545 2°49.161 246.6 15.1 238 9.8
2004-02-23 08:31:29 51°12.532 2°49.125 245.3 16 240 9.7
2004-02-23 08:31:33 51°12.524 2°49.1 245.2 16.2 242 9.7
2004-02-23 08:31:39 51°12.513 2°49.063 247.5 15.3 240 9.7
2004-02-23 08:31:43 51°12.505 2°49.039 248.2 15.2 240 9.9
2004-02-23 08:31:49 51°12.493 2°49.003 247.6 15.3 242 9.9
2004-02-23 08:31:53 51°12.485 2°48.979 246.6 15.7 241 9.8
2004-02-23 08:31:59 51°12.473 2°48.942 246.1 15.9 242 9.9
2004-02-23 08:32:03 51°12.465 2°48.918 248.6 15.4 244 9.9
2004-02-23 08:32:09 51°12.452 2°48.881 246.3 15.9 243 9.7
2004-02-23 08:32:13 51°12.445 2°48.856 247.3 15.4 245 9.8
2004-02-23 08:32:19 51°12.432 2°48.822 248.9 15.3 239 9.7
2004-02-23 08:32:23 51°12.424 2°48.796 245.6 15.8 245 9.7
2004-02-23 08:32:29 51°12.412 2°48.76 247.5 15.4 241 9.9
2004-02-23 08:32:34 51°12.4 2°48.731 246.7 15.8 237 9.9
2004-02-23 08:32:39 51°12.392 2°48.699 245.8 15.7 240 9.9
2004-02-23 08:32:43 51°12.382 2°48.677 248.1 15.4 236 9.8
2004-02-23 08:32:49 51°12.371 2°48.64 244.5 15.5 243 9.9
2004-02-23 08:32:53 51°12.362 2°48.617 246.8 15.5 240 9.9
2004-02-23 08:32:59 51°12.351 2°48.58 246 15.5 244 10
2004-02-23 08:33:03 51°12.342 2°48.556 247.9 15.5 240 10
2004-02-23 08:33:09 51°12.33 2°48.52 247.4 15.3 240 10
2004-02-23 08:33:14 51°12.319 2°48.49 245.6 15.8 240 9.8
2004-02-23 08:33:19 51°12.31 2°48.459 248.7 15.7 245 10
2004-02-23 08:33:23 51°12.3 2°48.436 246.6 15.3 238 9.9
2004-02-23 08:33:29 51°12.289 2°48.401 248.5 15.7 235 9.6
2004-02-23 08:33:34 51°12.279 2°48.369 244.4 16 245 9.5
2004-02-23 08:33:39 51°12.269 2°48.339 247.1 15.6 243 9.7
2004-02-23 08:33:43 51°12.261 2°48.315 248.6 14.8 242 10
2004-02-23 08:33:49 51°12.247 2°48.281 246 15.7 240 9.8
2004-02-23 08:33:53 51°12.241 2°48.255 245.3 16 246 9.8
2004-02-23 08:33:59 51°12.228 2°48.219 248.5 15.3 243 10.2
2004-02-23 08:34:03 51°12.221 2°48.195 247.7 15.1 244 10.4
2004-02-23 08:34:09 51°12.207 2°48.16 245.3 15.6 244 10.2
2004-02-23 08:34:13 51°12.2 2°48.135 246.3 15.6 243 10
2004-02-23 08:34:19 51°12.188 2°48.098 247.8 15.7 243 10
2004-02-23 08:34:24 51°12.178 2°48.068 247.6 15.5 243 10.1
2004-02-23 08:34:29 51°12.168 2°48.039 247.8 15.2 242 10.2
2004-02-23 08:34:34 51°12.157 2°48.009 246.8 15.5 240 10.1
2004-02-23 08:34:39 51°12.148 2°47.978 245.1 15.7 243 10.1
2004-02-23 08:34:44 51°12.136 2°47.949 247.3 15.6 241 10.1
2004-02-23 08:34:49 51°12.126 2°47.918 245.8 15.5 241 9.9
2004-02-23 08:34:54 51°12.115 2°47.889 246 15.3 237 9.9
2004-02-23 08:34:59 51°12.105 2°47.859 243.1 15.4 237 10
2004-02-23 08:35:03 51°12.097 2°47.835 244.9 15.4 241 10
2004-02-23 08:35:09 51°12.084 2°47.8 245.2 15.4 237 10
2004-02-23 08:35:14 51°12.072 2°47.772 244.5 15.6 236 9.9
2004-02-23 08:35:19 51°12.062 2°47.742 243.1 15.5 242 10
2004-02-23 08:35:24 51°12.051 2°47.714 244.9 15.5 242 10.1
2004-02-23 08:35:29 51°12.04 2°47.686 243.3 15.2 237 9.9
2004-02-23 08:35:33 51°12.032 2°47.661 241.4 15.8 242 9.6
2004-02-23 08:35:39 51°12.021 2°47.624 245.4 15.6 245 9.6
2004-02-23 08:35:44 51°12.01 2°47.596 247.8 14.9 240 9.8
2004-02-23 08:35:49 51°12 2°47.567 246 15.1 242 9.9
2004-02-23 08:35:54 51°11.99 2°47.537 246.1 15.6 241 9.8
2004-02-23 08:35:59 51°11.982 2°47.505 248 15.4 247 9.8
2004-02-23 08:36:03 51°11.974 2°47.482 250.2 15 243 10
2004-02-23 08:36:09 51°11.963 2°47.446 248.3 15.2 242 10
2004-02-23 08:36:14 51°11.952 2°47.417 246.8 15.4 241 10
2004-02-23 08:36:19 51°11.943 2°47.387 246.7 15.1 243 10.1
2004-02-23 08:36:23 51°11.934 2°47.365 246.5 15.2 239 10.1
2004-02-23 08:36:29 51°11.922 2°47.328 243.7 15.5 243 10
2004-02-23 08:36:34 51°11.911 2°47.3 246.4 14.9 239 10.1
2004-02-23 08:36:39 51°11.901 2°47.271 245 14.9 239 10
2004-02-23 08:36:43 51°11.892 2°47.248 243.8 15.3 240 9.9
2004-02-23 08:36:49 51°11.881 2°47.212 246.5 14.9 241 9.9
2004-02-23 08:36:54 51°11.869 2°47.184 245.5 15.2 239 9.6
2004-02-23 08:36:59 51°11.86 2°47.154 245.7 15.2 244 9.7
2004-02-23 08:37:04 51°11.848 2°47.126 245.3 15.2 238 9.6
2004-02-23 08:37:09 51°11.839 2°47.095 243.3 15.4 243 9.5
2004-02-23 08:37:13 51°11.831 2°47.072 246.9 15.1 240 9.6
2004-02-23 08:37:19 51°11.819 2°47.037 246.4 14.9 242 9.6
2004-02-23 08:37:23 51°11.811 2°47.014 245.6 15.1 240 9.7
2004-02-23 08:37:29 51°11.799 2°46.979 245.5 15 242 9.8
2004-02-23 08:37:33 51°11.791 2°46.956 245.3 14.9 239 9.6
2004-02-23 08:37:39 51°11.778 2°46.92 243.3 15.5 241 9.5
2004-02-23 08:37:44 51°11.768 2°46.89 245.1 15.6 241 9.7
2004-02-23 08:37:49 51°11.758 2°46.861 247.3 14.8 241 9.9
2004-02-23 08:37:54 51°11.747 2°46.833 245.8 14.9 240 9.8
2004-02-23 08:37:59 51°11.736 2°46.804 244.5 14.9 240 9.6
2004-02-23 08:38:04 51°11.727 2°46.773 244.1 15.5 242 9.7
2004-02-23 08:38:09 51°11.717 2°46.744 247.4 14.8 243 9.6
2004-02-23 08:38:13 51°11.709 2°46.721 247.2 14.7 240 9.5
2004-02-23 08:38:19 51°11.697 2°46.686 245.6 14.8 239 9.5
2004-02-23 08:38:24 51°11.686 2°46.656 245.1 15.7 242 9.5
2004-02-23 08:38:29 51°11.678 2°46.625 248.9 15.1 247 9.5
2004-02-23 08:38:33 51°11.669 2°46.603 248.2 15.1 241 9.4
2004-02-23 08:38:39 51°11.66 2°46.566 248.7 15 249 9.5
2004-02-23 08:38:44 51°11.649 2°46.537 249 15 239 9.6
2004-02-23 08:38:49 51°11.64 2°46.506 248.2 15.3 241 9.5
2004-02-23 08:38:53 51°11.632 2°46.482 248.7 15.2 244 9.6
2004-02-23 08:38:59 51°11.622 2°46.447 248.9 14.9 245 9.7
2004-02-23 08:39:03 51°11.614 2°46.423 248.7 14.8 242 9.7
2004-02-23 08:39:09 51°11.603 2°46.387 247.6 15.1 241 9.6
2004-02-23 08:39:14 51°11.594 2°46.358 248.2 14.9 245 9.8
2004-02-23 08:39:19 51°11.582 2°46.329 247 15.3 239 9.6
2004-02-23 08:39:23 51°11.576 2°46.303 247.5 15.4 246 9.7
2004-02-23 08:39:29 51°11.564 2°46.269 249 14.8 240 9.7
2004-02-23 08:39:34 51°11.555 2°46.24 247.4 14.7 244 9.8
2004-02-23 08:39:39 51°11.545 2°46.211 247.4 15.2 241 9.5
2004-02-23 08:39:44 51°11.536 2°46.18 247.4 15.5 244 9.5
2004-02-23 08:39:49 51°11.526 2°46.152 249.4 14.9 245 9.4
2004-02-23 08:39:54 51°11.516 2°46.122 243.6 15 244 9.3
2004-02-23 08:39:59 51°11.505 2°46.093 244.6 15.5 240 9.1
2004-02-23 08:40:03 51°11.497 2°46.068 245.8 15.3 248 9.4
2004-02-23 08:40:09 51°11.485 2°46.035 248.9 14.5 240 9.5
2004-02-23 08:40:14 51°11.477 2°46.006 247.2 14.5 243 9.5
2004-02-23 08:40:19 51°11.465 2°45.978 244.8 15 236 9.5
2004-02-23 08:40:25 51°11.453 2°45.942 244.2 15.5 243 9.3
2004-02-23 08:40:29 51°11.445 2°45.918 245.6 15.2 243 9.3
2004-02-23 08:40:34 51°11.436 2°45.889 246 14.7 242 9.6
2004-02-23 08:40:39 51°11.425 2°45.861 246.8 14.7 240 9.4
2004-02-23 08:40:44 51°11.416 2°45.831 245.5 14.8 243 9.3
2004-02-23 08:40:49 51°11.405 2°45.803 245.3 15.2 241 9.2
2004-02-23 08:40:54 51°11.396 2°45.774 245.1 14.9 241 9.1
2004-02-23 08:40:59 51°11.384 2°45.745 244 15.2 236 9.3
2004-02-23 08:41:03 51°11.377 2°45.72 245.8 15.3 246 9.2
2004-02-23 08:41:09 51°11.365 2°45.685 247.1 15.1 239 9.1
2004-02-23 08:41:13 51°11.357 2°45.662 247 14.9 243 9.2
2004-02-23 08:41:19 51°11.345 2°45.628 246.7 14.8 240 9.2
2004-02-23 08:41:24 51°11.335 2°45.6 245.5 15 241 9.1
2004-02-23 08:41:29 51°11.325 2°45.569 243.7 15.3 244 9
2004-02-23 08:41:34 51°11.313 2°45.542 245.6 14.9 239 9
2004-02-23 08:41:39 51°11.304 2°45.514 245.5 14.4 242 8.9
2004-02-23 08:41:43 51°11.295 2°45.491 243.2 14.9 238 8.7
2004-02-23 08:41:49 51°11.284 2°45.454 246.4 15.1 243 8.8
2004-02-23 08:41:54 51°11.276 2°45.425 248 14.8 245 8.8
2004-02-23 08:41:59 51°11.265 2°45.396 247.3 14.8 242 8.9
2004-02-23 08:42:03 51°11.258 2°45.373 248.1 14.9 242 8.9
2004-02-23 08:42:09 51°11.247 2°45.337 248.4 14.9 242 8.9
2004-02-23 08:42:13 51°11.24 2°45.313 247.9 15.3 243 8.7
2004-02-23 08:42:19 51°11.229 2°45.276 249 15.2 246 8.9
2004-02-23 08:42:24 51°11.219 2°45.248 250.1 14.9 245 8.7
2004-02-23 08:42:29 51°11.211 2°45.219 248.7 14.5 242 8.8
2004-02-23 08:42:33 51°11.203 2°45.196 247.6 14.9 240 8.5
2004-02-23 08:42:39 51°11.191 2°45.16 247 15.3 245 8.3
2004-02-23 08:42:43 51°11.183 2°45.137 248 14.9 244 8.2
2004-02-23 08:42:49 51°11.172 2°45.102 248.5 14.6 240 8.3
2004-02-23 08:42:53 51°11.165 2°45.08 248.1 14.6 242 8.5
2004-02-23 08:42:59 51°11.153 2°45.046 246.2 14.7 242 8.5
2004-02-23 08:43:04 51°11.143 2°45.017 245.2 14.9 240 8.5
2004-02-23 08:43:09 51°11.133 2°44.987 246 15.1 242 8.5
2004-02-23 08:43:13 51°11.125 2°44.963 246.5 15.2 244 8.6
2004-02-23 08:43:18 51°11.118 2°44.933 249.4 14.7 246 8.6
2004-02-23 08:43:23 51°11.108 2°44.905 248.6 14.4 241 8.6
2004-02-23 08:43:29 51°11.096 2°44.871 248.2 14.6 243 8.5
2004-02-23 08:43:34 51°11.086 2°44.841 246.4 15.2 243 8.4
2004-02-23 08:43:39 51°11.077 2°44.813 248 14.6 244 8.4
2004-02-23 08:43:43 51°11.068 2°44.791 246 15 237 8.2
2004-02-23 08:43:49 51°11.057 2°44.753 243.9 15.7 244 8
2004-02-23 08:43:54 51°11.047 2°44.724 249 15 244 8.4
2004-02-23 08:43:59 51°11.039 2°44.696 249.4 14.5 244 8.5
2004-02-23 08:44:03 51°11.031 2°44.674 247.2 14.1 241 8.3
2004-02-23 08:44:09 51°11.02 2°44.639 246.4 15 240 8.3
2004-02-23 08:44:14 51°11.009 2°44.61 246.3 15.3 242 8.2
2004-02-23 08:44:19 51°11 2°44.581 246.7 15.1 242 8.2
2004-02-23 08:44:24 51°10.99 2°44.553 247.3 14.7 241 8.3
2004-02-23 08:44:29 51°10.979 2°44.525 244.2 14.8 238 8.3
2004-02-23 08:44:34 51°10.969 2°44.498 245.2 14.3 237 8.1
2004-02-23 08:44:39 51°10.957 2°44.471 243 14.5 237 8
2004-02-23 08:44:43 51°10.948 2°44.448 240.5 15 237 8
2004-02-23 08:44:49 51°10.936 2°44.416 245.2 14.3 236 6
2004-02-23 08:44:53 51°10.928 2°44.393 242.2 14.7 242 7.9
2004-02-23 08:44:59 51°10.916 2°44.359 244.1 14.8 239 7.9
2004-02-23 08:45:03 51°10.91 2°44.336 247.4 14.6 243 5.7
2004-02-23 08:45:09 51°10.898 2°44.301 246.7 14.7 245 7.8
2004-02-23 08:45:13 51°10.891 2°44.278 248.3 14.6 246 7.9
2004-02-23 08:45:19 51°10.881 2°44.243 250 14.4 245 7.9
2004-02-23 08:45:23 51°10.875 2°44.22 250.6 14 247 7.9
2004-02-23 08:45:29 51°10.864 2°44.187 250 14.4 244 7.9
2004-02-23 08:45:34 51°10.855 2°44.157 247.8 15.1 242 -999
2004-02-23 08:45:39 51°10.846 2°44.127 248.1 15.1 242 7.8
2004-02-23 08:45:43 51°10.84 2°44.104 251.5 13.8 244 8.1
2004-02-23 08:45:49 51°10.83 2°44.072 250.4 13.9 245 8
2004-02-23 08:45:53 51°10.822 2°44.05 247.3 14.7 242 7.8
2004-02-23 08:45:59 51°10.813 2°44.013 249.2 14.9 248 7.6
2004-02-23 08:46:03 51°10.804 2°43.99 249.7 14.9 241 7.6
2004-02-23 08:46:09 51°10.795 2°43.956 250.8 13.8 242 7.7
2004-02-23 08:46:13 51°10.787 2°43.935 249.6 14.1 242 7.8
2004-02-23 08:46:19 51°10.776 2°43.9 247.5 14.3 245 7.7
2004-02-23 08:46:24 51°10.768 2°43.871 246.7 14.8 241 7.5
2004-02-23 08:46:29 51°10.757 2°43.845 247.5 14.1 239 7.5
2004-02-23 08:46:34 51°10.748 2°43.817 245.3 13.9 241 7.6
2004-02-23 08:46:39 51°10.737 2°43.791 244.5 13.9 235 7.6
2004-02-23 08:46:43 51°10.728 2°43.77 241.1 14.4 237 7.4
2004-02-23 08:46:49 51°10.716 2°43.736 241.7 14.7 237 7.3
2004-02-23 08:46:53 51°10.705 2°43.716 241.6 14.8 236 7.3
2004-02-23 08:46:59 51°10.693 2°43.682 242 14.5 241 7.4
2004-02-23 08:47:03 51°10.686 2°43.662 243.8 13.5 240 7.5
2004-02-23 08:47:09 51°10.674 2°43.632 242.5 13.3 240 7.6
2004-02-23 08:47:14 51°10.665 2°43.604 242.8 14.5 239 7.3
2004-02-23 08:47:19 51°10.658 2°43.573 244.3 14.8 253 7.2
2004-02-23 08:47:23 51°10.652 2°43.549 254.5 14.4 247 5.3
2004-02-23 08:47:29 51°10.647 2°43.514 255 14.2 249 7.5
2004-02-23 08:47:34 51°10.641 2°43.485 260.8 13.7 252 7.6
2004-02-23 08:47:39 51°10.638 2°43.455 262.4 13.8 260 7.4
2004-02-23 08:47:45 51°10.634 2°43.418 264.9 14.1 259 7.4
2004-02-23 08:47:49 51°10.63 2°43.394 266.5 14 262 7.3
2004-02-23 08:47:53 51°10.629 2°43.37 266.9 13.7 260 7.3
2004-02-23 08:47:59 51°10.624 2°43.333 268.4 13.9 260 7.2
2004-02-23 08:48:04 51°10.621 2°43.302 265.6 14.1 262 7.4
2004-02-23 08:48:09 51°10.617 2°43.272 269.4 14.1 255 5.5
2004-02-23 08:48:14 51°10.613 2°43.241 264.9 14.5 259 7.4
2004-02-23 08:48:19 51°10.61 2°43.21 265.1 14.4 260 7.5
2004-02-23 08:48:24 51°10.604 2°43.18 265.5 14 256 5.5
2004-02-23 08:48:29 51°10.6 2°43.15 263 14.3 255 7.5
2004-02-23 08:48:33 51°10.596 2°43.125 262.3 14.5 256 7.6
2004-02-23 08:48:39 51°10.591 2°43.088 262.9 14.2 259 7.7
2004-02-23 08:48:43 51°10.586 2°43.065 262.6 14.1 254 7.7
2004-02-23 08:48:49 51°10.581 2°43.028 261.4 14.3 258 7.7
2004-02-23 08:48:54 51°10.576 2°42.997 262.7 14.6 254 7.6
2004-02-23 08:48:59 51°10.572 2°42.966 262 14.5 257 7.8
2004-02-23 08:49:03 51°10.568 2°42.942 263.6 14 256 7.9
2004-02-23 08:49:09 51°10.562 2°42.905 260.5 14.2 254 7.8
2004-02-23 08:49:14 51°10.557 2°42.874 262 14.4 257 7.7
2004-02-23 08:49:19 51°10.553 2°42.843 262.5 14.7 256 7.8
2004-02-23 08:49:23 51°10.55 2°42.818 263.4 14.5 258 7.9
2004-02-23 08:49:29 51°10.545 2°42.781 265 14.2 258 8
2004-02-23 08:49:34 51°10.541 2°42.75 264.2 14.3 259 7.9
2004-02-23 08:49:39 51°10.535 2°42.718 264.2 14.6 258 8
2004-02-23 08:49:43 51°10.533 2°42.692 265.5 14.7 261 7.8
2004-02-23 08:49:49 51°10.529 2°42.655 266.6 14.3 261 7.7
2004-02-23 08:49:54 51°10.524 2°42.624 266.1 14.7 257 7.7
2004-02-23 08:49:59 51°10.521 2°42.592 265.5 14.8 260 7.9
2004-02-23 08:50:04 51°10.515 2°42.561 266.3 14.6 253 8
2004-02-23 08:50:09 51°10.511 2°42.529 263.2 14.7 255 8
2004-02-23 08:50:14 51°10.505 2°42.498 262.2 14.7 256 8.1
2004-02-23 08:50:19 51°10.5 2°42.467 262 14.7 254 8.3
2004-02-23 08:50:24 51°10.495 2°42.436 260.8 14.5 256 8.3
2004-02-23 08:50:29 51°10.49 2°42.405 260.5 14.7 259 8.3
2004-02-23 08:50:34 51°10.486 2°42.373 263.4 14.8 257 8.1
2004-02-23 08:50:39 51°10.483 2°42.341 264.1 14.6 261 8.3
2004-02-23 08:50:44 51°10.479 2°42.31 267.8 14.3 260 8.2
2004-02-23 08:50:49 51°10.477 2°42.278 266.4 14.8 261 8.1
2004-02-23 08:50:53 51°10.476 2°42.252 269.2 14.7 267 8.1
2004-02-23 08:50:59 51°10.474 2°42.213 271.5 14.7 267 8.5
2004-02-23 08:51:04 51°10.471 2°42.182 272.4 14.2 265 8.3
2004-02-23 08:51:09 51°10.469 2°42.149 270.3 14.9 265 8.3
2004-02-23 08:51:14 51°10.467 2°42.117 271.9 14.7 265 8.4
2004-02-23 08:51:19 51°10.464 2°42.085 270.4 14.7 260 8.6
2004-02-23 08:51:24 51°10.461 2°42.052 269.7 14.9 262 8.8
2004-02-23 08:51:29 51°10.458 2°42.019 268.5 15.2 261 8.9
2004-02-23 08:51:33 51°10.456 2°41.993 268.6 14.9 262 8.9
2004-02-23 08:51:39 51°10.452 2°41.954 269.2 14.9 260 8.9
2004-02-23 08:51:44 51°10.449 2°41.922 267.5 14.7 262 9.1
2004-02-23 08:51:49 51°10.446 2°41.889 267.9 15 264 8.9
2004-02-23 08:51:54 51°10.443 2°41.856 268.9 15.2 261 9
2004-02-23 08:51:59 51°10.441 2°41.823 268.8 15.1 260 9.1
2004-02-23 08:52:04 51°10.438 2°41.791 270.5 14.8 261 9.1
2004-02-23 08:52:09 51°10.434 2°41.758 267.1 15.3 263 9.1
2004-02-23 08:52:13 51°10.433 2°41.731 268.9 15.3 264 9.1
2004-02-23 08:52:19 51°10.43 2°41.692 270.1 15 263 9.4
2004-02-23 08:52:24 51°10.426 2°41.659 269.3 14.8 262 9.3
2004-02-23 08:52:29 51°10.423 2°41.626 268.5 15.3 262 9.3
2004-02-23 08:52:33 51°10.421 2°41.599 268.2 15.2 264 9.5
2004-02-23 08:52:39 51°10.417 2°41.56 269.4 15.2 262 9.4
2004-02-23 08:52:43 51°10.416 2°41.534 269.2 14.8 264 9.3
2004-02-23 08:52:49 51°10.412 2°41.494 270.5 15 260 9.3
2004-02-23 08:52:54 51°10.409 2°41.46 268 15.6 261 9.3
2004-02-23 08:52:59 51°10.407 2°41.427 268.5 15.3 264 9.4
2004-02-23 08:53:03 51°10.403 2°41.401 269.7 14.8 260 9.6
2004-02-23 08:53:09 51°10.4 2°41.362 266.2 15.1 261 9.7
2004-02-23 08:53:14 51°10.397 2°41.329 267.9 15.2 263 9.6
2004-02-23 08:53:19 51°10.394 2°41.295 268.4 15.2 261 9.8
2004-02-23 08:53:24 51°10.391 2°41.263 268.5 15 260 9.5
2004-02-23 08:53:29 51°10.387 2°41.23 267.6 15.1 265 9.7
2004-02-23 08:53:34 51°10.384 2°41.197 268.3 15.1 260 9.6
2004-02-23 08:53:39 51°10.381 2°41.164 268.2 15 262 9.6
2004-02-23 08:53:44 51°10.377 2°41.131 268.5 15.1 260 9.9
2004-02-23 08:53:49 51°10.374 2°41.098 267.8 15.3 260 9.9
2004-02-23 08:53:53 51°10.372 2°41.071 267.8 15.3 260 9.7
2004-02-23 08:53:59 51°10.368 2°41.031 268.5 15 263 9.8
2004-02-23 08:54:03 51°10.366 2°41.006 269.1 14.9 261 9.8
2004-02-23 08:54:09 51°10.361 2°40.966 266.8 15.2 260 10
2004-02-23 08:54:14 51°10.359 2°40.933 267.5 15.3 262 9.7
2004-02-23 08:54:19 51°10.355 2°40.899 267.2 15.5 261 9.8
2004-02-23 08:54:24 51°10.353 2°40.866 268.8 15.1 263 10
2004-02-23 08:54:29 51°10.35 2°40.833 269.8 15.2 263 10.2
2004-02-23 08:54:33 51°10.348 2°40.806 269.2 15.2 262 10.6
2004-02-23 08:54:39 51°10.344 2°40.766 268.5 15.4 261 10.6
2004-02-23 08:54:43 51°10.342 2°40.739 268.9 15.3 263 10.6
2004-02-23 08:54:49 51°10.338 2°40.699 268.5 15.2 261 10.6
2004-02-23 08:54:54 51°10.335 2°40.666 268 15.3 262 10.6
2004-02-23 08:54:59 51°10.33 2°40.632 267 15.4 258 10.6
2004-02-23 08:55:04 51°10.327 2°40.599 267.8 15.4 260 10.5
2004-02-23 08:55:09 51°10.324 2°40.566 265.9 15.3 264 10.5
2004-02-23 08:55:13 51°10.321 2°40.54 267.9 15.2 259 10.6
2004-02-23 08:55:19 51°10.317 2°40.499 267.4 15.2 262 10.5
2004-02-23 08:55:23 51°10.315 2°40.473 267.8 15.3 261 10.5
2004-02-23 08:55:29 51°10.311 2°40.432 267.8 15.4 260 10.6
2004-02-23 08:55:33 51°10.309 2°40.406 268.7 15.4 262 10.6
2004-02-23 08:55:39 51°10.305 2°40.366 269.3 15.1 264 10.8
2004-02-23 08:55:43 51°10.303 2°40.34 270.7 15 261 10.6
2004-02-23 08:55:49 51°10.299 2°40.3 267.8 15.4 262 10.7
2004-02-23 08:55:54 51°10.295 2°40.266 268 15.5 261 10.8
2004-02-23 08:55:59 51°10.293 2°40.233 269.2 15.3 262 10.9
2004-02-23 08:56:05 51°10.289 2°40.193 267.4 15.3 260 11
2004-02-23 08:56:09 51°10.287 2°40.167 268.9 15.1 260 10.9
2004-02-23 08:56:14 51°10.284 2°40.134 268 15.1 263 11
2004-02-23 08:56:19 51°10.28 2°40.1 267.4 15.6 260 11.1
2004-02-23 08:56:24 51°10.278 2°40.066 268.1 15.6 264 11.1
2004-02-23 08:56:29 51°10.274 2°40.033 268.7 15.1 263 11.4
2004-02-23 08:56:33 51°10.272 2°40.007 269.8 15 261 11.1
2004-02-23 08:56:39 51°10.267 2°39.967 267.7 15.1 261 10.9
2004-02-23 08:56:43 51°10.266 2°39.94 267.4 15.3 263 11
2004-02-23 08:56:49 51°10.261 2°39.9 267.8 15.4 261 11.1
2004-02-23 08:56:54 51°10.258 2°39.866 268.2 15.5 262 11.4
2004-02-23 08:56:59 51°10.255 2°39.832 268.5 15.4 261 11.6
2004-02-23 08:57:03 51°10.254 2°39.806 270 15.2 265 11.6
2004-02-23 08:57:09 51°10.25 2°39.766 268.2 15.1 263 11.7
2004-02-23 08:57:13 51°10.246 2°39.74 268.1 15.3 260 12
2004-02-23 08:57:19 51°10.242 2°39.699 267.4 15.5 260 12
2004-02-23 08:57:24 51°10.24 2°39.665 268 15.5 264 12
2004-02-23 08:57:29 51°10.237 2°39.632 268.7 15.2 264 12.2
2004-02-23 08:57:34 51°10.233 2°39.599 268.9 15.3 259 12.3
2004-02-23 08:57:39 51°10.23 2°39.566 268.2 15.2 262 12.1
2004-02-23 08:57:43 51°10.226 2°39.539 267.4 15.1 259 12.5
2004-02-23 08:57:49 51°10.223 2°39.499 267.8 15.2 261 12.3
2004-02-23 08:57:54 51°10.219 2°39.466 267.9 15.3 261 12.6
2004-02-23 08:57:59 51°10.216 2°39.433 268.1 15.3 260 12.4
2004-02-23 08:58:03 51°10.213 2°39.407 267.2 15.2 260 12.5
2004-02-23 08:58:09 51°10.209 2°39.367 268.2 15.2 260 12.7
2004-02-23 08:58:14 51°10.206 2°39.334 267.6 15.2 261 12.8
2004-02-23 08:58:19 51°10.202 2°39.301 267.5 15.3 260 13
2004-02-23 08:58:24 51°10.198 2°39.267 266.4 15.5 260 13
2004-02-23 08:58:29 51°10.196 2°39.234 268.8 15.2 260 13
2004-02-23 08:58:33 51°10.193 2°39.207 268.4 15.2 258 13
2004-02-23 08:58:39 51°10.189 2°39.168 267.2 15.1 263 13.1
2004-02-23 08:58:43 51°10.185 2°39.141 266.3 15.4 258 13
2004-02-23 08:58:49 51°10.182 2°39.101 265.8 15.2 261 13.3
2004-02-23 08:58:53 51°10.179 2°39.075 267.6 15.1 259 13.4
2004-02-23 08:58:59 51°10.174 2°39.036 265.9 15 260 13.6
2004-02-23 08:59:04 51°10.17 2°39.003 266.9 15.1 259 13.7
2004-02-23 08:59:09 51°10.168 2°38.97 266.7 15 260 13.5
2004-02-23 08:59:14 51°10.163 2°38.938 265.8 15.1 259 13.8
2004-02-23 08:59:19 51°10.16 2°38.905 266.7 15 262 13.8
2004-02-23 08:59:23 51°10.157 2°38.879 265.9 15.1 260 13.7
2004-02-23 08:59:29 51°10.154 2°38.839 267.7 15 262 14
2004-02-23 08:59:34 51°10.149 2°38.807 267.8 15 258 13.9
2004-02-23 08:59:39 51°10.147 2°38.774 266.8 14.9 263 13.8
2004-02-23 08:59:44 51°10.143 2°38.741 267 15 258 14
2004-02-23 08:59:49 51°10.141 2°38.708 267.6 15.2 263 13.7
2004-02-23 08:59:53 51°10.138 2°38.682 267.2 14.8 262 13.7
2004-02-23 08:59:59 51°10.134 2°38.643 267.6 14.7 261 13.9
2004-02-23 09:00:03 51°10.131 2°38.617 266.9 14.9 258 14
2004-02-23 09:00:09 51°10.127 2°38.578 268.1 15 260 13.9
2004-02-23 09:00:13 51°10.125 2°38.552 267.3 15 262 14.2
2004-02-23 09:00:19 51°10.121 2°38.513 267.6 15 262 14.5
2004-02-23 09:00:24 51°10.118 2°38.48 268.1 14.9 262 14.2
2004-02-23 09:00:29 51°10.115 2°38.448 267.4 14.8 261 14.7
2004-02-23 09:00:34 51°10.111 2°38.415 267 15.1 260 14.1
2004-02-23 09:00:39 51°10.108 2°38.383 266.3 15.1 260 14.8
2004-02-23 09:00:44 51°10.103 2°38.351 265.4 14.9 258 14.7
2004-02-23 09:00:49 51°10.102 2°38.318 265.3 14.9 260 14.7
2004-02-23 09:00:54 51°10.097 2°38.286 266.3 14.8 260 15
2004-02-23 09:00:59 51°10.094 2°38.253 267 14.8 263 14.9
2004-02-23 09:01:04 51°10.09 2°38.22 266.7 15.4 261 14.9
2004-02-23 09:01:09 51°10.089 2°38.187 267.6 14.6 264 15.2
2004-02-23 09:01:13 51°10.084 2°38.162 268.5 14.9 259 15.2
2004-02-23 09:01:19 51°10.082 2°38.123 266.8 15 261 15.2
2004-02-23 09:01:24 51°10.078 2°38.09 268.7 14.8 262 15.3
2004-02-23 09:01:29 51°10.075 2°38.056 266.7 15 264 15.4
2004-02-23 09:01:34 51°10.074 2°38.024 269.4 14.7 264 15.5
2004-02-23 09:01:39 51°10.069 2°37.992 266.5 14.7 264 15.4
2004-02-23 09:01:44 51°10.066 2°37.959 267.8 14.8 265 15.5
2004-02-23 09:01:49 51°10.062 2°37.926 266.9 15.1 261 15.2
2004-02-23 09:01:54 51°10.059 2°37.893 266.1 15.3 260 15.1
2004-02-23 09:01:59 51°10.056 2°37.86 266.6 15.3 260 15.3
2004-02-23 09:02:04 51°10.051 2°37.828 266.6 14.6 261 15.4
2004-02-23 09:02:09 51°10.047 2°37.795 264 15.5 261 15.4
2004-02-23 09:02:14 51°10.044 2°37.761 266 15.1 261 15.7
2004-02-23 09:02:19 51°10.04 2°37.729 265.4 14.8 258 15.7
2004-02-23 09:02:24 51°10.036 2°37.696 264 15.4 259 15.6
2004-02-23 09:02:29 51°10.032 2°37.663 265.5 15.3 259 15.7
2004-02-23 09:02:34 51°10.027 2°37.632 265 14.7 259 15.7
2004-02-23 09:02:39 51°10.023 2°37.599 263.7 14.7 259 15.7
2004-02-23 09:02:44 51°10.02 2°37.566 264.3 15.3 260 15.9
2004-02-23 09:02:49 51°10.015 2°37.534 267.4 15.2 252 15.9
2004-02-23 09:02:54 51°10.011 2°37.501 263.1 15.1 262 15.9
2004-02-23 09:02:59 51°10.007 2°37.469 265.7 15 267 15.9
2004-02-23 09:03:03 51°10.002 2°37.442 263.4 15.3 254 15.9
2004-02-23 09:03:09 51°10 2°37.403 264.1 14.9 262 16.1
2004-02-23 09:03:13 51°9.995 2°37.377 266.5 15.1 255 16
2004-02-23 09:03:19 51°9.992 2°37.338 264.1 15 261 16.2
2004-02-23 09:03:23 51°9.987 2°37.312 265.9 15.2 256 16.1
2004-02-23 09:03:29 51°9.983 2°37.272 264 15.3 262 16.2
2004-02-23 09:03:34 51°9.979 2°37.239 266.4 15.3 259 16.3
2004-02-23 09:03:39 51°9.975 2°37.206 265.5 15.2 259 16.1
2004-02-23 09:03:44 51°9.972 2°37.174 265.6 14.8 259 16.4
2004-02-23 09:03:49 51°9.966 2°37.141 262.7 15 256 16.3
2004-02-23 09:03:53 51°9.964 2°37.114 264.5 15.4 258 16
2004-02-23 09:03:59 51°9.958 2°37.075 265.2 15.1 256 16.3
2004-02-23 09:04:04 51°9.955 2°37.043 265.3 14.8 260 16.2
2004-02-23 09:04:09 51°9.95 2°37.011 263.5 14.9 257 16.4
2004-02-23 09:04:13 51°9.948 2°36.984 264.4 15.5 257 15.9
2004-02-23 09:04:19 51°9.942 2°36.944 264.9 15.4 260 16
2004-02-23 09:04:24 51°9.938 2°36.911 265.3 15.2 258 16.1
2004-02-23 09:04:29 51°9.934 2°36.879 265.5 15.1 258 16.2
2004-02-23 09:04:34 51°9.931 2°36.846 264.5 15.1 261 16.3
2004-02-23 09:04:39 51°9.924 2°36.813 264.1 15.3 254 16.2
2004-02-23 09:04:44 51°9.921 2°36.78 264.3 15.3 259 16.2
2004-02-23 09:04:49 51°9.917 2°36.747 266 15.3 257 15.9
2004-02-23 09:04:53 51°9.914 2°36.72 264.9 15.3 263 16.1
2004-02-23 09:04:59 51°9.911 2°36.68 267.5 15.3 262 16.1
2004-02-23 09:05:03 51°9.909 2°36.653 268.5 15.3 263 16.3
2004-02-23 09:05:09 51°9.907 2°36.612 271.2 15.3 266 16.5
2004-02-23 09:05:14 51°9.905 2°36.579 273.8 15.1 264 16.4
2004-02-23 09:05:19 51°9.905 2°36.547 273.6 14.8 267 16.3
2004-02-23 09:05:23 51°9.903 2°36.52 272.8 15 265 16.2
2004-02-23 09:05:29 51°9.903 2°36.479 274.4 15.3 270 16.2
2004-02-23 09:05:34 51°9.903 2°36.446 276.5 14.9 272 16
2004-02-23 09:05:39 51°9.904 2°36.414 279.5 14.8 272 16.3
2004-02-23 09:05:44 51°9.906 2°36.381 281.6 14.9 275 16.2
2004-02-23 09:05:49 51°9.91 2°36.348 284.6 14.7 281 16.4
2004-02-23 09:05:54 51°9.913 2°36.316 288 14.8 280 16.8
2004-02-23 09:05:59 51°9.918 2°36.284 289.7 14.5 281 16.7
2004-02-23 09:06:04 51°9.923 2°36.253 292.5 14.7 284 16.4
2004-02-23 09:06:09 51°9.929 2°36.222 293.7 14.6 290 16.4
2004-02-23 09:06:13 51°9.933 2°36.197 296.9 14.7 286 16.6
2004-02-23 09:06:19 51°9.943 2°36.162 299.5 14.4 293 16.4
2004-02-23 09:06:23 51°9.949 2°36.138 302.1 14.3 293 16.6
2004-02-23 09:06:29 51°9.959 2°36.104 303.5 14.5 293 16.4
2004-02-23 09:06:34 51°9.968 2°36.076 304.4 14.2 299 16.5
2004-02-23 09:06:39 51°9.977 2°36.048 307.7 14.1 298 16.6
2004-02-23 09:06:43 51°9.985 2°36.027 310.5 14 300 16.6
2004-02-23 09:06:49 51°9.998 2°35.996 313 14 303 16.2
2004-02-23 09:06:54 51°10.01 2°35.971 315 13.8 308 16.1
2004-02-23 09:06:59 51°10.022 2°35.947 317.8 13.8 308 16
2004-02-23 09:07:05 51°10.037 2°35.921 319.3 13.7 314 16
2004-02-23 09:07:09 51°10.049 2°35.905 324.1 13.5 317 15.7
2004-02-23 09:07:13 51°10.06 2°35.89 327.8 13.3 322 15
2004-02-23 09:07:19 51°10.079 2°35.872 332.8 13 328 14.6
2004-02-23 09:07:23 51°10.09 2°35.859 337.7 12.7 329 14.4
2004-02-23 09:07:29 51°10.109 2°35.846 342 12.4 337 13.4
2004-02-23 09:07:34 51°10.125 2°35.836 345.6 12.4 340 12.8
2004-02-23 09:07:39 51°10.141 2°35.829 350.5 12.1 343 11.7
2004-02-23 09:07:43 51°10.155 2°35.823 352.6 12.3 343 10.7
2004-02-23 09:07:49 51°10.174 2°35.817 355 12.1 351 10.3
2004-02-23 09:07:54 51°10.191 2°35.814 358.8 12.1 353 9.7
2004-02-23 09:07:59 51°10.208 2°35.812 1.8 12 355 9.6
2004-02-23 09:08:03 51°10.221 2°35.813 5 11.8   9.2
2004-02-23 09:08:09 51°10.24 2°35.813 7 11.8 2 9.4
2004-02-23 09:08:14 51°10.257 2°35.814 9.8 11.8 3 9
2004-02-23 09:08:19 51°10.273 2°35.816 10.8 11.9 4 9
2004-02-23 09:08:25 51°10.293 2°35.819 12.8 11.9 6 9
2004-02-23 09:08:29 51°10.306 2°35.822 14 11.9 8 9.1
2004-02-23 09:08:33 51°10.319 2°35.826 15.8 12.1 8 9.4
2004-02-23 09:08:39 51°10.34 2°35.829 16.2 11.9 9 9.5
2004-02-23 09:08:43 51°10.353 2°35.833 16.3 12.1 10 9.3
2004-02-23 09:08:49 51°10.373 2°35.838 16.9 12 9 9.5
2004-02-23 09:08:53 51°10.386 2°35.841 17 12 9 9.3
2004-02-23 09:08:59 51°10.405 2°35.846 17 12.2 9 9.3
2004-02-23 09:09:03 51°10.419 2°35.849 17.2 12.2 8 9.5
2004-02-23 09:09:09 51°10.439 2°35.854 17.3 12.4 7 9.3
2004-02-23 09:09:14 51°10.456 2°35.857 15.8 12.4 7 9.3
2004-02-23 09:09:19 51°10.473 2°35.86 16.1 12.2 8 9.2
2004-02-23 09:09:25 51°10.493 2°35.865 16.2 12.1 8 9.2
2004-02-23 09:09:29 51°10.506 2°35.867 16.7 11.9 9 9.6
2004-02-23 09:09:33 51°10.519 2°35.871 17.1 12.1 7 9.1
2004-02-23 09:09:39 51°10.539 2°35.873 15.9 12.2 7 9.1
2004-02-23 09:09:44 51°10.556 2°35.876 15.3 12.2 7 9
2004-02-23 09:09:49 51°10.572 2°35.879 15.5 11.8 6 9.3
2004-02-23 09:09:53 51°10.585 2°35.882 15.9 11.7 5 8.8
2004-02-23 09:09:59 51°10.605 2°35.883 14.9 11.7 7 8.9
2004-02-23 09:10:03 51°10.618 2°35.886 15.1 11.7 8 9.1
2004-02-23 09:10:09 51°10.638 2°35.889 15.3 11.8 5 9.3
2004-02-23 09:10:14 51°10.653 2°35.891 14.7 11.4 7 9
2004-02-23 09:10:19 51°10.669 2°35.894 15.8 11.4 7 -999
2004-02-23 09:10:23 51°10.682 2°35.894 15.5 11.2 3 9.1
2004-02-23 09:10:29 51°10.701 2°35.897 14.8 11.6 2 9.2
2004-02-23 09:10:34 51°10.716 2°35.898 14.5 11.4 5 9.1
2004-02-23 09:10:39 51°10.732 2°35.9 14 11.2 4 9.5
2004-02-23 09:10:44 51°10.748 2°35.902 14.2 11.6 3 9.2
2004-02-23 09:10:49 51°10.764 2°35.905 14.3 11.8 4 9.5
2004-02-23 09:10:53 51°10.777 2°35.907 13.8 11.8 4 9.6
2004-02-23 09:10:59 51°10.797 2°35.911 15.4 11.7 8 9.4
2004-02-23 09:11:04 51°10.813 2°35.916 17.7 11.7 10 9.3
2004-02-23 09:11:09 51°10.829 2°35.922 20.1 11.7 13 9.2
2004-02-23 09:11:13 51°10.842 2°35.926 21 12 15 9.4
2004-02-23 09:11:19 51°10.861 2°35.934 22 11.9 15 9.5
2004-02-23 09:11:23 51°10.873 2°35.94 23.5 11.7 15 9.3
2004-02-23 09:11:29 51°10.892 2°35.951 25.4 11.8 19 9.4
2004-02-23 09:11:34 51°10.907 2°35.96 27.8 11.9 22 9.3
2004-02-23 09:11:39 51°10.922 2°35.97 29.5 11.8 23 9.4
2004-02-23 09:11:44 51°10.936 2°35.982 31.2 11.8 27 9.2
2004-02-23 09:11:49 51°10.951 2°35.993 32.9 11.5 26 9.3
2004-02-23 09:11:54 51°10.965 2°36.005 32.6 11.3 28 8.8
2004-02-23 09:11:59 51°10.979 2°36.015 34.8 11.4 24 8.9
2004-02-23 09:12:03 51°10.991 2°36.023 33.3 11.6 26 9
2004-02-23 09:12:09 51°11.008 2°36.036 33.4 11.3 25 9.1
2004-02-23 09:12:14 51°11.022 2°36.047 33 11.5 26 9
2004-02-23 09:12:19 51°11.037 2°36.058 33.2 11.8 25 9.4
2004-02-23 09:12:23 51°11.049 2°36.067 33.2 11.9 26 9.6
2004-02-23 09:12:29 51°11.066 2°36.079 32.8 11.5 24 9
2004-02-23 09:12:34 51°11.081 2°36.09 32.2 11.6 25 9.5
2004-02-23 09:12:39 51°11.095 2°36.101 32.4 11.7 25 9.1
2004-02-23 09:12:43 51°11.107 2°36.11 33.3 11.7 26 9.2
2004-02-23 09:12:49 51°11.123 2°36.125 35.3 11.6 27 9.4
2004-02-23 09:12:53 51°11.135 2°36.135 36.6 11.5 30 9.6
2004-02-23 09:12:59 51°11.151 2°36.151 38.3 11.5 30 9.6
2004-02-23 09:13:04 51°11.164 2°36.166 38.8 11.8 33 9.7
2004-02-23 09:13:09 51°11.177 2°36.179 39.8 11.5 34 9.2
2004-02-23 09:13:14 51°11.19 2°36.195 40.4 11.6 37 9.3
2004-02-23 09:13:19 51°11.204 2°36.208 39.9 11.5 31 9.4
2004-02-23 09:13:24 51°11.217 2°36.223 40.1 11.5 36 9.2
2004-02-23 09:13:29 51°11.23 2°36.238 41.3 11.7 35 9.2
2004-02-23 09:13:34 51°11.243 2°36.251 40.9 11.7 34 9.2
2004-02-23 09:13:39 51°11.257 2°36.266 40.6 11.7 35 9.2
2004-02-23 09:13:43 51°11.268 2°36.276 40.5 11.7 32 9.4
2004-02-23 09:13:50 51°11.286 2°36.297 39.8 11.5 33 9.1
2004-02-23 09:13:54 51°11.297 2°36.308 41 11.2 35 9.4
2004-02-23 09:14:00 51°11.313 2°36.326 41.2 11.3 36 9
2004-02-23 09:14:04 51°11.323 2°36.337 42.1 11.5 34 9.4
2004-02-23 09:14:10 51°11.339 2°36.355 41.3 11.8 35 9.5
2004-02-23 09:14:14 51°11.349 2°36.366 40.4 11.5 34 9.4
2004-02-23 09:14:18 51°11.361 2°36.377 41 11.6 33 9.5
2004-02-23 09:14:24 51°11.376 2°36.394 40.2 11.4 33 9.6
2004-02-23 09:14:30 51°11.392 2°36.411 39.9 11.4 34 9.6
2004-02-23 09:14:34 51°11.403 2°36.422 40.6 11.6 33 9.4
2004-02-23 09:14:40 51°11.42 2°36.439 40.1 11.8 33 9.7
2004-02-23 09:14:44 51°11.43 2°36.451 39.6 11.7 36 9.7
2004-02-23 09:14:50 51°11.445 2°36.471 42.6 11.7 38 9.4
2004-02-23 09:14:54 51°11.454 2°36.486 45.8 11.7 43 9.3
2004-02-23 09:15:00 51°11.468 2°36.507 47.9 11.7 43 9.5
2004-02-23 09:15:04 51°11.476 2°36.523 50.2 11.6 49 9.9
2004-02-23 09:15:10 51°11.49 2°36.546 52.3 11.6 47 9.7
2004-02-23 09:15:14 51°11.498 2°36.56 53.1 11.3 48 9.4
2004-02-23 09:15:19 51°11.507 2°36.581 53.5 11.4 54 9.7
2004-02-23 09:15:24 51°11.517 2°36.601 56.1 11.5 54 9.7
2004-02-23 09:15:28 51°11.524 2°36.618 57.7 11.3 54 9.6
2004-02-23 09:15:34 51°11.536 2°36.642 58.4 11.6 51 9.5
2004-02-23 09:15:40 51°11.547 2°36.667 56.9 11.7 54 9.7
2004-02-23 09:15:44 51°11.555 2°36.683 57.7 11.6 53 10.1
2004-02-23 09:15:48 51°11.562 2°36.7 57.6 11.4 55 10.1
2004-02-23 09:15:54 51°11.573 2°36.724 59.8 11.1 55 10.2
2004-02-23 09:16:00 51°11.582 2°36.75 58.4 11.1 59 10
2004-02-23 09:16:04 51°11.589 2°36.767 58.9 11.3 57 10
2004-02-23 09:16:10 51°11.6 2°36.791 59.5 11.4 56 9.8
2004-02-23 09:16:14 51°11.607 2°36.807 59.4 11.3 55 9.9
2004-02-23 09:16:19 51°11.617 2°36.828 58.3 11.3 55 10.1
2004-02-23 09:16:24 51°11.626 2°36.848 58 11.5 54 10.5
2004-02-23 09:16:30 51°11.636 2°36.873 58.1 11.3 53 10.8
2004-02-23 09:16:34 51°11.644 2°36.887 57.9 11.2 52 10.8
2004-02-23 09:16:38 51°11.651 2°36.903 57.1 11.2 56 10.6
2004-02-23 09:16:44 51°11.662 2°36.926 57.8 11.2 52 10.4
2004-02-23 09:16:50 51°11.673 2°36.951 57.2 11.5 56 11
2004-02-23 09:16:54 51°11.68 2°36.968 57.6 11.6 56 10.8
2004-02-23 09:17:00 51°11.692 2°36.992 57.3 11.6 52 10.7
2004-02-23 09:17:04 51°11.7 2°37.008 57.2 11.6 54 10.7
2004-02-23 09:17:08 51°11.707 2°37.026 57.8 11.5 56 10.9
2004-02-23 09:17:14 51°11.719 2°37.049 57.5 11.4 54 10.9
2004-02-23 09:17:20 51°11.73 2°37.074 56.8 11.2 56 11.2
2004-02-23 09:17:24 51°11.737 2°37.09 56.9 11.4 54 11.4
2004-02-23 09:17:30 51°11.747 2°37.115 58.1 11.2 56 11.3
2004-02-23 09:17:34 51°11.754 2°37.131 58 11.5 54 11.3
2004-02-23 09:17:40 51°11.765 2°37.155 57.3 11.2 56 10.8
2004-02-23 09:17:44 51°11.773 2°37.172 57.1 11.4 54 11.1
2004-02-23 09:17:50 51°11.784 2°37.196 58.2 11.6 55 11.2
2004-02-23 09:17:54 51°11.792 2°37.212 58 11.3 53 11.2
2004-02-23 09:18:00 51°11.802 2°37.238 59.3 11.3 57 11.2
2004-02-23 09:18:04 51°11.808 2°37.256 59.4 11.6 59 11.5
2004-02-23 09:18:10 51°11.818 2°37.282 59.6 11.5 56 11.7
2004-02-23 09:18:14 51°11.824 2°37.298 59.3 11.2 57 11.4
2004-02-23 09:18:19 51°11.832 2°37.32 59.8 11.3 58 11.7
2004-02-23 09:18:24 51°11.841 2°37.34 60.9 11.5 57 11.4
2004-02-23 09:18:30 51°11.85 2°37.367 60.3 11.4 55 11.5
2004-02-23 09:18:34 51°11.858 2°37.382 59.4 11.5 54 11.8
2004-02-23 09:18:39 51°11.866 2°37.405 59.6 11.6 59 11.6
2004-02-23 09:18:44 51°11.875 2°37.425 59.6 11.7 57 11.6
2004-02-23 09:18:49 51°11.883 2°37.448 59.5 11.5 60 11.8
2004-02-23 09:18:54 51°11.892 2°37.468 60.2 11.5 53 12.1
2004-02-23 09:18:58 51°11.898 2°37.486 60.2 11.6 62 12.2
2004-02-23 09:19:04 51°11.91 2°37.511 59.6 11.6 54 12.1
2004-02-23 09:19:10 51°11.919 2°37.536 58.5 11.3 58 11.9
2004-02-23 09:19:14 51°11.926 2°37.553 59.9 11.6 57 12.1
2004-02-23 09:19:19 51°11.936 2°37.574 59.6 11.5 55 12.2
2004-02-23 09:19:24 51°11.943 2°37.596 60.2 11.6 59 12
2004-02-23 09:19:30 51°11.954 2°37.623 60.8 11.6 59 12.5
2004-02-23 09:19:34 51°11.961 2°37.64 60.7 11.6 58 12.5
2004-02-23 09:19:40 51°11.971 2°37.665 60.2 11.5 60 12.6
2004-02-23 09:19:44 51°11.978 2°37.682 62.4 11.7 58 12.2
2004-02-23 09:19:50 51°11.989 2°37.708 61.5 11.7 55 12.5
2004-02-23 09:19:54 51°11.995 2°37.727 60.9 11.7 60 12.4
2004-02-23 09:20:00 51°12.006 2°37.751 60.9 11.8 53 12.8
2004-02-23 09:20:04 51°12.012 2°37.77 59.5 11.7 59 12.4
2004-02-23 09:20:10 51°12.024 2°37.795 60 11.8 57 12.2
2004-02-23 09:20:14 51°12.031 2°37.812 60.2 11.8 59 12.6
2004-02-23 09:20:20 51°12.041 2°37.837 60.6 11.5 59 12.3
2004-02-23 09:20:24 51°12.047 2°37.854 60.8 11.3 59 12.2
2004-02-23 09:20:30 51°12.057 2°37.88 60.9 11.3 57 11.8
2004-02-23 09:20:34 51°12.064 2°37.898 61.3 11.6 57 12
2004-02-23 09:20:40 51°12.075 2°37.922 61 11.4 57 12.3
2004-02-23 09:20:44 51°12.081 2°37.94 60 11.2 58 12.5
2004-02-23 09:20:49 51°12.09 2°37.96 60.9 11.5 56 12.4
2004-02-23 09:20:54 51°12.098 2°37.983 59.9 11.9 62 12.7
2004-02-23 09:21:00 51°12.11 2°38.008 60.5 11.7 53 12.6
2004-02-23 09:21:04 51°12.116 2°38.026 59.8 11.8 61 12.4
2004-02-23 09:21:10 51°12.126 2°38.052 61 11.6 59 12.5
2004-02-23 09:21:14 51°12.133 2°38.07 60.5 11.9 56 12.6
2004-02-23 09:21:19 51°12.141 2°38.092 60.9 11.8 61 12.4
2004-02-23 09:21:24 51°12.151 2°38.114 60.9 11.7 56 12.1
2004-02-23 09:21:30 51°12.16 2°38.141 63.1 11.8 63 12.4
2004-02-23 09:21:34 51°12.167 2°38.159 61.6 11.8 59 12.2
2004-02-23 09:21:40 51°12.176 2°38.186 61.6 11.3 62 12.5
2004-02-23 09:21:44 51°12.181 2°38.205 64.1 11.7 65 12.3
2004-02-23 09:21:50 51°12.192 2°38.231 63.8 12 57 12.4
2004-02-23 09:21:54 51°12.198 2°38.25 62.8 11.7 62 12.2
2004-02-23 09:22:00 51°12.208 2°38.277 62.8 11.8 56 12.1
2004-02-23 09:22:04 51°12.215 2°38.295 62.3 12 62 11.8
2004-02-23 09:22:10 51°12.226 2°38.321 61.9 12.1 58 12.5
2004-02-23 09:22:14 51°12.231 2°38.34 61.4 11.6 62 12.4
2004-02-23 09:22:19 51°12.24 2°38.362 63 11.8 59 12
2004-02-23 09:22:24 51°12.248 2°38.385 60.9 11.8 60 12.3
2004-02-23 09:22:30 51°12.258 2°38.411 62 11.4 59 12.2
2004-02-23 09:22:34 51°12.265 2°38.429 62.1 12 58 12.2
2004-02-23 09:22:39 51°12.274 2°38.45 60.2 11.9 56 12
2004-02-23 09:22:44 51°12.283 2°38.472 59.5 11.6 58 12.3
2004-02-23 09:22:50 51°12.293 2°38.499 60.9 11.7 59 12.3
2004-02-23 09:22:54 51°12.299 2°38.517 62.1 12 59 12.3
2004-02-23 09:22:58 51°12.307 2°38.535 61.2 11.9 57 12.1
2004-02-23 09:23:04 51°12.317 2°38.562 61.5 12 59 12.1
2004-02-23 09:23:10 51°12.326 2°38.59 60.3 12 55 11.9
2004-02-23 09:23:14 51°12.334 2°38.607 61.4 11.9 55 12
2004-02-23 09:23:20 51°12.344 2°38.634 61.6 12 59 12.3
2004-02-23 09:23:24 51°12.352 2°38.651 61.3 11.9 59 12.1
2004-02-23 09:23:30 51°12.361 2°38.679 61.6 11.9 58 12.1
2004-02-23 09:23:34 51°12.369 2°38.697 62 11.9 56 12.6
2004-02-23 09:23:40 51°12.378 2°38.723 60.9 12 62 12.1
2004-02-23 09:23:44 51°12.386 2°38.74 61.5 11.6 54 11.8
2004-02-23 09:23:50 51°12.395 2°38.766 60 11.7 59 11.5
2004-02-23 09:23:54 51°12.402 2°38.783 61.7 11.2 58 11.6
2004-02-23 09:23:59 51°12.41 2°38.806 61 11.4 60 11.8
2004-02-23 09:24:04 51°12.418 2°38.827 61.2 11.7 60 12
2004-02-23 09:24:10 51°12.428 2°38.855 62.4 11.5 59 11.9
2004-02-23 09:24:14 51°12.435 2°38.871 62.5 11.7 57 12.3
2004-02-23 09:24:20 51°12.446 2°38.898 60.2 11.5 58 12.2